Aeroporto :
LOGIN :

Iscrizione | Disclaimer

   EN    FR    IT 

 










Sommario :    VFR   VFR Marginale   IFR   IFR Intensivo   IFR Molto Intensivo
Visibilità : 
Base nubi : 
>= 8 km
>= 3000ft
5 / 8 km
1000 / 3000 ft
1500m / 5 km
500 / 1000 ft
800 / 1500m
200 / 500 ft
< 800m
< 200 ft
Simboli :   Temporali  Nebbia  Neve Forte  Precipitazioni Forti  Vento > 20 kt
SIGMETs :   Varie  Temporali  Ghiacco  Turbolenza  Onda orograficha  Ceneri Vulcaniche







- Altitudine del aeroporto : 939 ft


LKKB - Kbely Air Base

ULTIMO METAR :
  • 180600Z 27008KT CAVOK 08/03 Q1022 NOSIG

METARs OBSOLETI :
  • 180500Z 26007KT 240V300 CAVOK 08/03 Q1022 NOSIG
  • 180400Z 28012KT CAVOK 08/03 Q1021 NOSIG

TAF TAF LKKB
Valido dal 18 a 06 ore il 19 a 06 ore UTC


180500Z 1806/1906 29012KT CAVOK
TEMPO 1806/1816 30014G24KT
TEMPO 1809/1814 BKN030
BECMG 1816/1818 30008KT
Nessun NOTAM noto per questo aeroporto.



MetMap, La meteo Aeronautica in un colpo d'occhio ! - Copyright ORBIFLY Dicembre 2007 - Disclaimer

ORBIFLY MET'MAP TEAM :

Programmazione e sviluppo : Alexandra Zaïnal
Concezione e sviluppo : Baudouin d'Aumeries
Co-Programmazione e sviluppo : Marc-Olivier Méhu
Supporto tecnico e logistico : Manuel Goepfert
Aiuto per la traduzione : Arnaldo La Scala

Contatto : metmap@orbifly.com




FONTI E CREDITI :

   NOAA